Mexico, Indiana
Current Conditions -  °F | °C
As of 1:58 PM on Thursday 27 Nov 2014 (Local Time) from KGUS Reporting Station
Overcast Overcast  
Wind Chill: 17°   Ceiling: 1700
Heat Index: 28°   Visibility: 10mi
Dew Point: 25°   Wind: 13mph
Humidity: 89%   Direction: 290°WNW
Pressure: 30.29"   Gusts: NA
Location:  40.82°N, 86.12°W
Report Text: KGUS 271858Z 29011KT 10SM OVC017 M01/M03 A3029 RMK AO2A CIG 015V020 SLP268 T10241040
Loading
Personal Weather Stations






























Interactive Weather Map New forecast layout! Learn more

10-Day Weather Forecast

Advertisements
Track Severe Weather on mobile